Time;durP1;ratioP1;P1;durP2;ratioP2;P2;SDS_P1;SDS_P2;PMS_P1;PMS_P2;Temp;Humidity;BMP_temperature;BMP_pressure;BME280_temperature;BME280_humidity;BME280_pressure;Samples;Min_cycle;Max_cycle;Signal;HPM_P1;HPM_P2
2021/06/23 00:01:32;;;;;;;;;42.33;36.00;;;;;;;;4984173;28;9422;-82
2021/06/23 00:03:59;;;;;;;;;42.75;36.50;;;;;;;;4983309;28;9531;-81
2021/06/23 00:06:27;;;;;;;;;36.00;34.00;;;;;;;;4986898;28;9425;-81
2021/06/23 00:08:54;;;;;;;;;35.00;32.33;;;;;;;;4986475;28;9336;-81
2021/06/23 00:11:21;;;;;;;;;37.67;35.33;;;;;;;;4985164;28;9486;-82
2021/06/23 00:13:50;;;;;;;;;35.00;32.00;;;;;;;;4986982;28;9460;-83
2021/06/23 00:16:19;;;;;;;;;33.00;31.00;;;;;;;;4982237;28;9249;-83
2021/06/23 00:18:46;;;;;;;;;35.00;34.00;;;;;;;;4985889;28;9439;-83
2021/06/23 00:21:13;;;;;;;;;35.00;32.33;;;;;;;;4983943;28;9485;-82
2021/06/23 00:23:41;;;;;;;;;41.75;36.25;;;;;;;;4985665;28;9340;-82
2021/06/23 00:26:08;;;;;;;;;43.75;34.75;;;;;;;;4983581;28;9488;-83
2021/06/23 00:28:35;;;;;;;;;26.67;26.33;;;;;;;;4984759;28;9457;-81
2021/06/23 00:31:02;;;;;;;;;6.00;6.00;;;;;;;;4985669;28;9261;-82
2021/06/23 00:33:33;;;;;;;;;32.67;31.33;;;;;;;;4984391;28;9541;-82
2021/06/23 00:36:00;;;;;;;;;44.25;37.25;;;;;;;;4977722;28;9338;-82
2021/06/23 00:38:28;;;;;;;;;37.50;35.50;;;;;;;;4984646;28;9606;-82
2021/06/23 00:40:55;;;;;;;;;35.67;34.33;;;;;;;;4983334;28;9436;-81
2021/06/23 00:43:23;;;;;;;;;32.00;31.33;;;;;;;;4982527;28;9329;-81
2021/06/23 00:45:51;;;;;;;;;38.00;36.33;;;;;;;;4983713;28;9393;-82
2021/06/23 00:48:27;;;;;;;;;36.67;33.33;;;;;;;;4982827;28;10420;-81
2021/06/23 00:50:56;;;;;;;;;33.00;32.33;;;;;;;;4982318;28;9366;-80
2021/06/23 00:53:24;;;;;;;;;40.00;34.67;;;;;;;;4990648;28;9263;-81
2021/06/23 00:55:54;;;;;;;;;35.67;34.00;;;;;;;;4981638;28;9569;-80
2021/06/23 00:58:22;;;;;;;;;37.33;35.00;;;;;;;;4992283;28;9468;-81
2021/06/23 01:00:50;;;;;;;;;33.00;30.67;;;;;;;;4983877;28;9332;-80
2021/06/23 01:03:18;;;;;;;;;41.33;34.67;;;;;;;;4984537;28;9107;-80
2021/06/23 01:05:45;;;;;;;;;34.33;30.00;;;;;;;;4983424;28;9335;-81
2021/06/23 01:08:15;;;;;;;;;42.00;34.00;;;;;;;;4982893;28;9207;-81
2021/06/23 01:10:42;;;;;;;;;27.67;25.67;;;;;;;;4980939;28;9271;-79
2021/06/23 01:13:25;;;;;;;;;40.33;36.00;;;;;;;;4980901;28;9258;-81
2021/06/23 01:15:53;;;;;;;;;33.33;32.67;;;;;;;;4982988;28;9839;-82
2021/06/23 01:18:20;;;;;;;;;42.00;34.00;;;;;;;;4983253;28;9216;-79
2021/06/23 01:20:49;;;;;;;;;35.00;32.33;;;;;;;;4983746;28;9417;-79
2021/06/23 01:23:18;;;;;;;;;32.33;28.33;;;;;;;;4983288;28;9285;-79
2021/06/23 01:25:47;;;;;;;;;28.00;28.00;;;;;;;;4982503;28;9207;-80
2021/06/23 01:28:14;;;;;;;;;38.33;34.00;;;;;;;;4985086;28;9918;-79
2021/06/23 01:30:42;;;;;;;;;30.33;30.33;;;;;;;;4981189;28;9493;-81
2021/06/23 01:33:10;;;;;;;;;33.67;29.67;;;;;;;;4982310;28;9270;-81
2021/06/23 01:35:37;;;;;;;;;30.67;30.67;;;;;;;;4980458;28;9435;-80
2021/06/23 01:38:06;;;;;;;;;23.67;20.00;;;;;;;;4984511;28;10175;-81
2021/06/23 01:40:35;;;;;;;;;33.00;30.67;;;;;;;;4983646;28;9291;-82
2021/06/23 01:43:02;;;;;;;;;31.33;29.33;;;;;;;;4984905;28;9475;-82
2021/06/23 01:45:30;;;;;;;;;33.33;33.00;;;;;;;;4986542;28;9471;-82
2021/06/23 01:47:59;;;;;;;;;36.67;33.00;;;;;;;;4981153;28;9296;-83
2021/06/23 01:50:26;;;;;;;;;36.67;34.00;;;;;;;;4983381;28;9289;-82
2021/06/23 01:52:54;;;;;;;;;32.00;31.67;;;;;;;;4982114;28;9460;-81
2021/06/23 01:55:31;;;;;;;;;35.00;32.00;;;;;;;;4983843;28;10108;-81
2021/06/23 01:58:05;;;;;;;;;35.33;31.33;;;;;;;;4983718;28;9429;-81
2021/06/23 02:00:41;;;;;;;;;29.33;27.33;;;;;;;;4980270;28;9225;-81
2021/06/23 02:03:17;;;;;;;;;33.67;33.67;;;;;;;;4978060;28;9273;-81
2021/06/23 02:05:59;;;;;;;;;29.67;27.33;;;;;;;;4995808;28;9446;-80
2021/06/23 02:08:39;;;;;;;;;34.00;32.33;;;;;;;;4986611;28;9183;-82
2021/06/23 02:11:15;;;;;;;;;37.33;34.00;;;;;;;;4986359;28;9289;-80
2021/06/23 02:14:07;;;;;;;;;40.67;34.00;;;;;;;;4985027;28;10055;-80
2021/06/23 02:16:36;;;;;;;;;29.00;29.00;;;;;;;;4989688;28;9201;-78
2021/06/23 02:19:06;;;;;;;;;34.67;32.67;;;;;;;;4991547;28;9358;-80
2021/06/23 02:21:38;;;;;;;;;34.67;31.00;;;;;;;;4988388;28;9294;-80
2021/06/23 02:24:07;;;;;;;;;34.67;34.00;;;;;;;;4992813;28;9274;-80
2021/06/23 02:26:35;;;;;;;;;30.00;26.00;;;;;;;;4986529;28;9435;-81
2021/06/23 02:29:05;;;;;;;;;34.33;34.00;;;;;;;;4986471;28;9383;-80
2021/06/23 02:31:32;;;;;;;;;39.33;34.00;;;;;;;;4985427;28;9339;-82
2021/06/23 02:34:00;;;;;;;;;31.00;27.33;;;;;;;;4984969;28;9212;-81
2021/06/23 02:36:28;;;;;;;;;32.50;29.75;;;;;;;;4987275;28;9277;-81
2021/06/23 02:38:56;;;;;;;;;35.00;33.00;;;;;;;;4986568;28;8874;-81
2021/06/23 02:41:23;;;;;;;;;30.25;29.25;;;;;;;;4987950;28;8980;-81
2021/06/23 02:43:50;;;;;;;;;34.67;32.67;;;;;;;;4984993;28;8920;-81
2021/06/23 02:46:19;;;;;;;;;31.25;29.75;;;;;;;;4985498;28;9102;-81
2021/06/23 02:48:47;;;;;;;;;34.75;33.50;;;;;;;;4987217;28;8858;-80
2021/06/23 02:51:21;;;;;;;;;31.00;28.00;;;;;;;;4986238;28;8851;-78
2021/06/23 02:53:50;;;;;;;;;28.75;27.25;;;;;;;;4984778;28;8937;-80
2021/06/23 02:56:19;;;;;;;;;30.75;29.75;;;;;;;;4985946;28;8916;-81
2021/06/23 02:58:47;;;;;;;;;26.00;25.25;;;;;;;;4984937;28;8914;-80
2021/06/23 03:01:15;;;;;;;;;23.50;23.50;;;;;;;;4984991;28;8803;-82
2021/06/23 03:03:45;;;;;;;;;19.00;19.00;;;;;;;;4987472;28;8897;-82
2021/06/23 03:06:12;;;;;;;;;22.00;19.50;;;;;;;;4995426;28;8866;-83
2021/06/23 03:08:40;;;;;;;;;26.75;25.00;;;;;;;;4986737;28;8886;-82
2021/06/23 03:11:07;;;;;;;;;27.00;25.50;;;;;;;;4985491;28;9001;-80
2021/06/23 03:13:35;;;;;;;;;24.00;20.25;;;;;;;;4987257;28;8976;-79
2021/06/23 03:16:02;;;;;;;;;23.25;23.25;;;;;;;;4984688;28;8858;-80
2021/06/23 03:18:32;;;;;;;;;20.50;20.50;;;;;;;;4984154;28;8882;-81
2021/06/23 03:21:01;;;;;;;;;25.25;24.25;;;;;;;;4986396;28;8883;-83
2021/06/23 03:23:29;;;;;;;;;25.25;24.00;;;;;;;;4983897;28;9683;-81
2021/06/23 03:25:57;;;;;;;;;32.75;31.50;;;;;;;;4985375;28;8998;-79
2021/06/23 03:28:24;;;;;;;;;23.50;22.25;;;;;;;;4984232;28;8879;-80
2021/06/23 03:30:52;;;;;;;;;27.50;23.25;;;;;;;;4985268;28;8822;-81
2021/06/23 03:33:19;;;;;;;;;24.75;22.75;;;;;;;;4985430;28;8952;-80
2021/06/23 03:35:47;;;;;;;;;29.25;27.00;;;;;;;;4983947;28;8851;-79
2021/06/23 03:38:15;;;;;;;;;29.67;26.33;;;;;;;;4986066;28;8880;-79
2021/06/23 03:40:43;;;;;;;;;26.00;25.67;;;;;;;;4986543;28;9018;-80
2021/06/23 03:43:10;;;;;;;;;28.25;26.75;;;;;;;;4985665;28;9052;-79
2021/06/23 03:45:37;;;;;;;;;27.00;25.00;;;;;;;;4985457;28;8924;-79
2021/06/23 03:48:08;;;;;;;;;27.00;25.00;;;;;;;;4984297;28;8974;-79
2021/06/23 03:50:36;;;;;;;;;32.33;27.67;;;;;;;;4986565;28;8963;-78
2021/06/23 03:53:03;;;;;;;;;23.67;23.67;;;;;;;;4984374;28;9039;-78
2021/06/23 03:55:32;;;;;;;;;20.00;20.00;;;;;;;;4984247;28;8936;-78
2021/06/23 03:58:00;;;;;;;;;32.50;26.00;;;;;;;;4984418;28;9001;-80
2021/06/23 04:00:29;;;;;;;;;30.00;26.67;;;;;;;;4986398;28;8969;-81
2021/06/23 04:02:56;;;;;;;;;26.75;25.75;;;;;;;;4983124;28;9025;-80
2021/06/23 04:05:24;;;;;;;;;25.50;25.50;;;;;;;;4985423;28;8914;-80
2021/06/23 04:07:51;;;;;;;;;28.75;26.00;;;;;;;;4998796;28;8866;-79
2021/06/23 04:10:19;;;;;;;;;31.25;25.75;;;;;;;;4983821;28;8998;-81
2021/06/23 04:12:48;;;;;;;;;31.00;28.25;;;;;;;;4986433;28;9661;-85
2021/06/23 04:15:16;;;;;;;;;31.00;28.00;;;;;;;;4984699;28;8925;-85
2021/06/23 04:17:44;;;;;;;;;33.67;30.00;;;;;;;;5000707;28;9222;-84
2021/06/23 04:20:12;;;;;;;;;32.00;29.00;;;;;;;;4990515;28;9405;-87
2021/06/23 04:22:40;;;;;;;;;26.67;23.00;;;;;;;;4987359;28;9382;-87
2021/06/23 04:25:11;;;;;;;;;29.33;26.33;;;;;;;;4976526;28;9291;-88
2021/06/23 04:27:39;;;;;;;;;37.67;33.67;;;;;;;;4986530;28;9318;-85
2021/06/23 04:30:10;;;;;;;;;30.67;27.33;;;;;;;;4985071;28;9248;-86
2021/06/23 04:32:37;;;;;;;;;28.67;27.33;;;;;;;;4985907;28;10030;-88
2021/06/23 04:35:06;;;;;;;;;33.00;28.33;;;;;;;;4986972;28;9251;-88
2021/06/23 04:37:34;;;;;;;;;34.33;31.33;;;;;;;;4990939;28;9118;-85
2021/06/23 04:40:01;;;;;;;;;30.33;26.33;;;;;;;;4985708;28;9299;-83
2021/06/23 04:42:29;;;;;;;;;33.00;29.67;;;;;;;;4985663;28;9197;-81
2021/06/23 04:44:56;;;;;;;;;37.00;34.00;;;;;;;;4986816;28;9329;-84
2021/06/23 04:47:25;;;;;;;;;32.00;26.67;;;;;;;;4983889;28;9392;-84
2021/06/23 04:49:53;;;;;;;;;30.00;30.00;;;;;;;;4981572;28;9343;-82
2021/06/23 04:52:20;;;;;;;;;31.67;31.00;;;;;;;;4987326;28;9359;-84
2021/06/23 04:54:47;;;;;;;;;40.25;34.00;;;;;;;;4985169;28;9330;-84
2021/06/23 04:57:15;;;;;;;;;36.00;30.33;;;;;;;;4986369;28;9428;-84
2021/06/23 04:59:42;;;;;;;;;30.67;28.33;;;;;;;;4988353;28;9365;-85
2021/06/23 05:02:09;;;;;;;;;34.33;32.33;;;;;;;;4984842;28;9226;-84
2021/06/23 05:04:39;;;;;;;;;31.00;31.00;;;;;;;;4989909;28;9535;-85
2021/06/23 05:07:07;;;;;;;;;31.33;29.33;;;;;;;;4981895;28;9368;-85
2021/06/23 05:09:35;;;;;;;;;35.00;28.67;;;;;;;;4986695;28;9343;-85
2021/06/23 05:12:02;;;;;;;;;30.00;25.67;;;;;;;;4985073;28;9322;-84
2021/06/23 05:14:30;;;;;;;;;36.25;31.50;;;;;;;;4988056;28;10106;-86
2021/06/23 05:16:58;;;;;;;;;30.67;28.33;;;;;;;;4981682;28;9459;-82
2021/06/23 05:19:25;;;;;;;;;25.00;25.00;;;;;;;;4984233;28;9375;-84
2021/06/23 05:21:54;;;;;;;;;29.00;25.67;;;;;;;;4984584;28;9348;-80
2021/06/23 05:24:21;;;;;;;;;30.00;28.67;;;;;;;;4984299;28;10177;-80
2021/06/23 05:26:49;;;;;;;;;26.33;24.00;;;;;;;;4983423;28;9248;-80
2021/06/23 05:29:16;;;;;;;;;36.00;30.33;;;;;;;;4993615;28;9481;-82
2021/06/23 05:31:44;;;;;;;;;31.33;28.67;;;;;;;;4985759;28;9230;-83
2021/06/23 05:34:12;;;;;;;;;28.00;28.00;;;;;;;;4983481;28;9349;-83
2021/06/23 05:36:39;;;;;;;;;26.67;25.67;;;;;;;;4984120;28;9342;-83
2021/06/23 05:39:08;;;;;;;;;31.67;30.00;;;;;;;;4983168;28;9360;-84
2021/06/23 05:41:36;;;;;;;;;21.00;18.67;;;;;;;;4984520;28;9486;-82
2021/06/23 05:44:03;;;;;;;;;27.33;27.33;;;;;;;;4981199;28;9252;-82
2021/06/23 05:46:31;;;;;;;;;33.00;31.67;;;;;;;;4983504;28;9352;-81
2021/06/23 05:48:58;;;;;;;;;25.33;24.00;;;;;;;;4967741;28;9549;-86
2021/06/23 05:51:26;;;;;;;;;27.00;27.00;;;;;;;;4982100;28;9462;-86
2021/06/23 05:53:53;;;;;;;;;26.33;26.33;;;;;;;;4984772;28;9433;-83
2021/06/23 05:56:22;;;;;;;;;12.75;10.00;;;;;;;;4984383;28;9340;-82
2021/06/23 05:58:49;;;;;;;;;31.00;29.33;;;;;;;;4984534;28;9515;-83
2021/06/23 06:01:17;;;;;;;;;31.67;30.00;;;;;;;;4972130;28;9259;-82
2021/06/23 06:03:44;;;;;;;;;21.67;17.67;;;;;;;;4980059;28;9346;-78
2021/06/23 06:06:11;;;;;;;;;31.33;30.67;;;;;;;;4981595;28;9364;-76
2021/06/23 06:08:38;;;;;;;;;32.00;30.33;;;;;;;;4977587;28;9440;-71
2021/06/23 06:11:06;;;;;;;;;28.00;26.00;;;;;;;;4981231;28;9352;-79
2021/06/23 06:13:34;;;;;;;;;33.33;31.67;;;;;;;;4981363;28;9396;-73
2021/06/23 06:16:01;;;;;;;;;26.67;25.67;;;;;;;;4983031;28;9479;-76
2021/06/23 06:18:29;;;;;;;;;30.00;30.00;;;;;;;;4984389;28;9373;-80
2021/06/23 06:20:57;;;;;;;;;30.00;27.00;;;;;;;;4976044;28;9416;-82
2021/06/23 06:23:25;;;;;;;;;29.67;25.67;;;;;;;;4978770;28;9391;-82
2021/06/23 06:25:53;;;;;;;;;25.00;23.33;;;;;;;;4981291;28;9353;-73
2021/06/23 06:28:22;;;;;;;;;30.33;29.00;;;;;;;;4977403;28;9496;-75
2021/06/23 06:30:51;;;;;;;;;25.67;23.67;;;;;;;;4982085;28;9385;-73
2021/06/23 06:33:18;;;;;;;;;25.67;25.67;;;;;;;;4984129;28;9321;-75
2021/06/23 06:35:46;;;;;;;;;33.00;26.33;;;;;;;;4978209;28;9261;-79
2021/06/23 06:38:13;;;;;;;;;28.33;26.33;;;;;;;;4974145;28;9291;-81
2021/06/23 06:40:40;;;;;;;;;30.33;28.00;;;;;;;;4984538;28;9401;-75
2021/06/23 06:43:08;;;;;;;;;36.67;33.33;;;;;;;;4981184;28;9276;-79
2021/06/23 06:45:35;;;;;;;;;29.00;27.67;;;;;;;;4984259;28;9287;-73
2021/06/23 06:48:05;;;;;;;;;27.00;27.00;;;;;;;;4982601;28;10120;-75
2021/06/23 06:50:33;;;;;;;;;26.33;24.67;;;;;;;;4979374;28;10083;-78
2021/06/23 06:53:00;;;;;;;;;29.00;27.67;;;;;;;;4980856;28;9296;-79
2021/06/23 06:55:28;;;;;;;;;30.67;28.33;;;;;;;;4979968;28;9291;-77
2021/06/23 06:57:56;;;;;;;;;25.67;24.00;;;;;;;;4980434;28;9194;-78
2021/06/23 07:00:25;;;;;;;;;26.00;26.00;;;;;;;;4979683;28;9049;-76
2021/06/23 07:02:54;;;;;;;;;26.00;26.00;;;;;;;;4987654;28;9264;-80
2021/06/23 07:05:23;;;;;;;;;27.00;25.67;;;;;;;;4985971;28;9126;-73
2021/06/23 07:07:50;;;;;;;;;24.00;23.33;;;;;;;;4979465;28;9079;-78
2021/06/23 07:10:18;;;;;;;;;30.00;28.33;;;;;;;;4987503;28;9114;-75
2021/06/23 07:12:45;;;;;;;;;27.67;26.33;;;;;;;;4991573;28;9191;-77
2021/06/23 07:15:13;;;;;;;;;29.67;27.33;;;;;;;;4982866;28;9421;-76
2021/06/23 07:17:41;;;;;;;;;25.00;21.67;;;;;;;;4985947;28;9021;-80
2021/06/23 07:20:09;;;;;;;;;26.00;26.00;;;;;;;;4981253;28;9336;-77
2021/06/23 07:22:38;;;;;;;;;27.33;27.33;;;;;;;;4984660;28;9104;-79
2021/06/23 07:25:07;;;;;;;;;23.67;23.67;;;;;;;;4983357;28;9375;-80
2021/06/23 07:27:34;;;;;;;;;32.67;27.00;;;;;;;;4981898;28;9113;-77
2021/06/23 07:30:02;;;;;;;;;20.67;20.67;;;;;;;;4986431;28;9071;-78
2021/06/23 07:32:32;;;;;;;;;23.00;21.33;;;;;;;;4989310;28;9024;-78
2021/06/23 07:37:42;;;;;;;;;20.67;20.33;;;;;;;;4986324;28;9018;-77
2021/06/23 07:40:12;;;;;;;;;19.67;19.67;;;;;;;;4984113;28;9182;-76
2021/06/23 07:42:39;;;;;;;;;24.25;23.50;;;;;;;;4980984;28;9231;-80
2021/06/23 07:45:09;;;;;;;;;20.25;20.25;;;;;;;;4986513;28;9349;-79
2021/06/23 07:47:38;;;;;;;;;30.67;26.33;;;;;;;;4979871;28;8861;-75
2021/06/23 07:50:09;;;;;;;;;23.75;22.25;;;;;;;;4985103;28;9040;-75
2021/06/23 07:52:42;;;;;;;;;24.33;22.67;;;;;;;;4983697;28;8874;-83
2021/06/23 07:55:42;;;;;;;;;31.50;25.75;;;;;;;;4980775;28;9078;-81
2021/06/23 08:09:15;;;;;;;;;23.50;21.00;;;;;;;;4985227;28;8976;-77
2021/06/23 08:11:46;;;;;;;;;20.50;18.75;;;;;;;;4985510;28;8878;-79
2021/06/23 08:14:13;;;;;;;;;23.50;22.00;;;;;;;;4979522;28;8874;-77
2021/06/23 08:16:40;;;;;;;;;23.25;22.00;;;;;;;;4986453;28;8908;-81
2021/06/23 08:19:08;;;;;;;;;22.00;22.00;;;;;;;;4985067;28;8908;-81
2021/06/23 08:21:35;;;;;;;;;20.00;19.00;;;;;;;;4986368;28;8878;-81
2021/06/23 08:24:02;;;;;;;;;23.50;21.50;;;;;;;;4984401;28;8874;-73
2021/06/23 08:26:30;;;;;;;;;24.50;22.50;;;;;;;;4984495;28;8989;-72
2021/06/23 08:28:58;;;;;;;;;19.50;19.50;;;;;;;;4984222;28;8879;-80
2021/06/23 08:31:26;;;;;;;;;22.75;19.75;;;;;;;;4983312;28;8845;-84
2021/06/23 08:33:54;;;;;;;;;19.50;19.50;;;;;;;;4986045;28;8893;-75
2021/06/23 08:36:21;;;;;;;;;29.25;24.00;;;;;;;;4984397;28;8878;-71
2021/06/23 08:38:50;;;;;;;;;24.00;22.25;;;;;;;;4977910;28;8981;-77
2021/06/23 08:41:17;;;;;;;;;20.33;20.33;;;;;;;;4983876;28;8882;-78
2021/06/23 08:43:44;;;;;;;;;21.50;20.00;;;;;;;;4982805;28;8968;-79
2021/06/23 08:46:13;;;;;;;;;24.50;23.50;;;;;;;;4983605;28;8847;-75
2021/06/23 08:48:40;;;;;;;;;25.00;24.00;;;;;;;;4983393;28;8913;-73
2021/06/23 08:51:09;;;;;;;;;24.50;21.50;;;;;;;;4982386;28;9396;-80
2021/06/23 08:53:36;;;;;;;;;26.25;24.75;;;;;;;;4982077;28;8967;-74
2021/06/23 08:56:05;;;;;;;;;21.00;20.25;;;;;;;;4983749;28;8902;-78
2021/06/23 08:58:32;;;;;;;;;31.67;30.33;;;;;;;;4982045;28;8907;-78
2021/06/23 09:01:00;;;;;;;;;23.50;19.50;;;;;;;;4980599;28;8927;-79
2021/06/23 09:03:29;;;;;;;;;20.67;18.67;;;;;;;;4979722;28;8863;-79
2021/06/23 09:05:59;;;;;;;;;20.25;17.75;;;;;;;;4978105;28;8972;-79
2021/06/23 09:08:34;;;;;;;;;20.00;19.25;;;;;;;;4985309;28;8867;-77
2021/06/23 09:11:03;;;;;;;;;23.25;22.50;;;;;;;;4983945;28;8889;-79
2021/06/23 09:13:32;;;;;;;;;22.25;20.00;;;;;;;;4982975;28;8886;-80
2021/06/23 09:16:01;;;;;;;;;17.75;15.50;;;;;;;;4981201;28;8894;-79
2021/06/23 09:18:33;;;;;;;;;18.00;14.00;;;;;;;;4982238;28;8952;-78
2021/06/23 09:21:04;;;;;;;;;24.75;20.75;;;;;;;;4984991;28;8863;-79
2021/06/23 09:23:43;;;;;;;;;17.50;16.50;;;;;;;;4982239;28;8882;-76
2021/06/23 09:26:12;;;;;;;;;21.00;18.25;;;;;;;;4983953;28;8866;-79
2021/06/23 09:28:40;;;;;;;;;16.25;15.00;;;;;;;;4981375;28;8855;-77
2021/06/23 09:31:09;;;;;;;;;19.50;17.50;;;;;;;;4983213;28;8823;-76
2021/06/23 09:33:38;;;;;;;;;21.75;18.00;;;;;;;;4983648;28;8894;-76
2021/06/23 09:36:07;;;;;;;;;17.50;14.75;;;;;;;;4984163;28;8866;-79
2021/06/23 09:38:44;;;;;;;;;18.25;18.25;;;;;;;;4981335;28;8876;-76
2021/06/23 09:41:27;;;;;;;;;20.25;17.50;;;;;;;;4981256;28;9064;-75
2021/06/23 09:43:56;;;;;;;;;16.00;16.00;;;;;;;;4980855;28;9681;-75
2021/06/23 09:46:25;;;;;;;;;16.00;15.75;;;;;;;;4980386;28;8892;-74
2021/06/23 09:49:06;;;;;;;;;16.25;16.25;;;;;;;;4982956;28;8944;-75
2021/06/23 09:51:40;;;;;;;;;16.50;16.25;;;;;;;;4982366;28;8886;-75
2021/06/23 09:54:08;;;;;;;;;20.25;19.75;;;;;;;;4981733;28;8949;-76
2021/06/23 09:56:38;;;;;;;;;20.00;17.00;;;;;;;;4983024;28;8855;-75
2021/06/23 09:59:07;;;;;;;;;26.25;25.75;;;;;;;;4978777;28;8909;-75
2021/06/23 10:01:41;;;;;;;;;18.75;17.50;;;;;;;;4983066;28;9627;-74
2021/06/23 10:04:10;;;;;;;;;15.25;15.25;;;;;;;;4980912;28;9628;-81
2021/06/23 10:06:39;;;;;;;;;18.25;16.50;;;;;;;;4978493;28;8960;-81
2021/06/23 10:09:23;;;;;;;;;18.00;18.00;;;;;;;;4982393;28;8850;-84
2021/06/23 10:11:54;;;;;;;;;16.50;16.50;;;;;;;;4979225;28;8906;-82
2021/06/23 10:14:23;;;;;;;;;17.00;17.00;;;;;;;;4981582;28;8888;-83
2021/06/23 10:16:52;;;;;;;;;17.25;17.25;;;;;;;;4981416;28;8847;-80
2021/06/23 10:19:22;;;;;;;;;16.75;16.75;;;;;;;;4982392;28;8910;-81
2021/06/23 10:21:49;;;;;;;;;17.50;16.00;;;;;;;;4984455;28;8881;-84
2021/06/23 10:24:18;;;;;;;;;15.25;14.50;;;;;;;;4981103;28;8898;-81
2021/06/23 10:26:48;;;;;;;;;17.50;16.75;;;;;;;;4983239;28;8893;-83
2021/06/23 10:29:17;;;;;;;;;16.50;15.50;;;;;;;;4984908;28;8888;-82
2021/06/23 10:31:45;;;;;;;;;14.00;14.00;;;;;;;;4985923;28;9661;-81
2021/06/23 10:34:12;;;;;;;;;18.75;17.00;;;;;;;;4982900;28;8865;-81
2021/06/23 10:36:42;;;;;;;;;16.50;16.50;;;;;;;;4985807;28;8862;-82
2021/06/23 10:39:10;;;;;;;;;18.75;17.00;;;;;;;;4984133;28;8901;-81
2021/06/23 10:41:42;;;;;;;;;17.75;16.00;;;;;;;;4985390;28;8890;-81
2021/06/23 10:44:17;;;;;;;;;16.00;16.00;;;;;;;;4986105;28;8900;-80
2021/06/23 10:46:45;;;;;;;;;17.00;16.50;;;;;;;;4988417;28;9639;-86
2021/06/23 10:49:16;;;;;;;;;18.50;18.50;;;;;;;;4989170;28;8898;-80
2021/06/23 10:51:47;;;;;;;;;19.00;18.25;;;;;;;;4984962;28;8909;-84
2021/06/23 10:54:37;;;;;;;;;20.00;18.50;;;;;;;;4986767;28;8882;-85
2021/06/23 10:57:24;;;;;;;;;20.00;18.25;;;;;;;;4987245;28;8919;-87
2021/06/23 10:59:52;;;;;;;;;14.00;13.50;;;;;;;;4991492;28;8888;-87
2021/06/23 11:02:20;;;;;;;;;19.50;18.00;;;;;;;;4989574;28;8834;-85
2021/06/23 11:05:10;;;;;;;;;16.50;16.50;;;;;;;;4991549;28;8858;-87
2021/06/23 11:07:40;;;;;;;;;22.50;19.75;;;;;;;;4983945;28;8858;-88
2021/06/23 11:10:27;;;;;;;;;21.50;20.00;;;;;;;;4988005;28;8894;-87
2021/06/23 11:12:57;;;;;;;;;25.25;21.25;;;;;;;;4980134;28;8874;-87
2021/06/23 11:15:26;;;;;;;;;29.75;23.00;;;;;;;;4992333;28;8863;-88
2021/06/23 11:17:55;;;;;;;;;25.00;22.25;;;;;;;;4988308;28;8883;-87
2021/06/23 11:20:42;;;;;;;;;17.25;16.50;;;;;;;;4987896;28;8907;-89
2021/06/23 11:23:39;;;;;;;;;25.50;23.50;;;;;;;;4984475;28;8878;-87
2021/06/23 11:26:09;;;;;;;;;26.25;25.50;;;;;;;;4986262;28;8889;-86
2021/06/23 11:28:37;;;;;;;;;21.50;21.50;;;;;;;;4986038;28;8885;-87
2021/06/23 11:31:08;;;;;;;;;24.00;24.00;;;;;;;;4990972;28;8834;-88
2021/06/23 11:33:46;;;;;;;;;26.50;24.75;;;;;;;;4987220;28;8891;-84
2021/06/23 11:36:15;;;;;;;;;21.25;21.25;;;;;;;;4984900;28;8887;-87
2021/06/23 11:38:45;;;;;;;;;22.00;20.00;;;;;;;;4967559;28;8868;-87
2021/06/23 11:41:13;;;;;;;;;22.00;20.25;;;;;;;;4968121;28;8880;-86
2021/06/23 11:43:41;;;;;;;;;25.75;19.75;;;;;;;;4967808;28;8889;-86
2021/06/23 11:46:09;;;;;;;;;22.50;20.75;;;;;;;;4968421;28;9803;-87
2021/06/23 11:48:38;;;;;;;;;20.75;20.50;;;;;;;;4969638;28;8885;-87
2021/06/23 11:51:06;;;;;;;;;19.50;19.50;;;;;;;;4966911;28;8881;-86
2021/06/23 11:53:37;;;;;;;;;19.25;19.25;;;;;;;;4968474;28;9719;-85
2021/06/23 11:56:05;;;;;;;;;23.25;21.25;;;;;;;;4966738;28;8985;-86
2021/06/23 11:58:34;;;;;;;;;21.50;20.75;;;;;;;;4968512;28;8881;-83
2021/06/23 12:01:02;;;;;;;;;18.25;17.25;;;;;;;;4967131;28;8827;-86
2021/06/23 12:03:29;;;;;;;;;26.00;23.75;;;;;;;;4965710;28;8865;-87
2021/06/23 12:05:56;;;;;;;;;27.00;26.25;;;;;;;;4968500;28;8919;-87
2021/06/23 12:08:24;;;;;;;;;22.50;22.50;;;;;;;;4966335;28;8899;-87
2021/06/23 12:10:51;;;;;;;;;20.50;18.50;;;;;;;;4969062;28;8877;-87
2021/06/23 12:13:18;;;;;;;;;24.25;24.25;;;;;;;;4966195;28;8873;-86
2021/06/23 12:15:47;;;;;;;;;21.50;21.50;;;;;;;;4972348;28;8896;-85
2021/06/23 12:18:15;;;;;;;;;18.00;18.00;;;;;;;;4967620;28;8904;-83
2021/06/23 12:20:42;;;;;;;;;24.50;22.25;;;;;;;;4966748;28;8885;-76
2021/06/23 12:23:11;;;;;;;;;28.00;27.75;;;;;;;;4965345;28;9729;-84
2021/06/23 12:25:40;;;;;;;;;24.50;24.00;;;;;;;;4970645;28;8887;-90
2021/06/23 12:28:10;;;;;;;;;29.75;28.75;;;;;;;;4964887;28;8881;-89
2021/06/23 12:30:39;;;;;;;;;31.75;29.75;;;;;;;;4964483;28;8840;-76
2021/06/23 12:33:10;;;;;;;;;26.00;26.00;;;;;;;;4967270;28;8892;-88
2021/06/23 12:35:39;;;;;;;;;23.75;23.75;;;;;;;;4964458;28;8881;-83
2021/06/23 12:38:08;;;;;;;;;29.75;25.25;;;;;;;;4965616;28;9438;-82
2021/06/23 12:40:36;;;;;;;;;29.75;26.25;;;;;;;;4964565;28;8899;-87
2021/06/23 12:43:06;;;;;;;;;28.50;28.50;;;;;;;;4964842;28;8905;-86
2021/06/23 12:45:34;;;;;;;;;28.00;28.00;;;;;;;;4966542;28;8984;-86
2021/06/23 12:48:04;;;;;;;;;33.75;30.50;;;;;;;;4962448;28;8877;-87
2021/06/23 12:50:33;;;;;;;;;28.00;26.50;;;;;;;;4963301;28;8896;-83
2021/06/23 12:53:00;;;;;;;;;32.50;30.00;;;;;;;;4967594;28;8881;-83
2021/06/23 12:55:28;;;;;;;;;30.75;28.25;;;;;;;;4970671;28;9047;-91
2021/06/23 12:57:56;;;;;;;;;35.50;31.75;;;;;;;;4965309;28;8999;-86
2021/06/23 13:00:23;;;;;;;;;31.50;30.00;;;;;;;;4966393;28;8804;-81
2021/06/23 13:02:51;;;;;;;;;35.50;31.25;;;;;;;;4969072;28;8893;-76
2021/06/23 13:05:18;;;;;;;;;34.25;32.50;;;;;;;;4967619;28;8869;-84
2021/06/23 13:07:47;;;;;;;;;44.75;38.50;;;;;;;;4971134;28;8906;-90
2021/06/23 13:10:16;;;;;;;;;48.25;41.00;;;;;;;;4966908;28;8906;-87
2021/06/23 13:12:44;;;;;;;;;40.50;35.75;;;;;;;;4967372;28;8904;-93
2021/06/23 13:15:14;;;;;;;;;49.33;40.67;;;;;;;;4966642;28;8861;-93
2021/06/23 13:17:41;;;;;;;;;38.00;34.50;;;;;;;;4966547;28;9147;-93
2021/06/23 13:20:10;;;;;;;;;34.75;32.75;;;;;;;;4965849;28;8875;-90
2021/06/23 13:22:38;;;;;;;;;25.75;25.75;;;;;;;;4969061;28;8889;-88
2021/06/23 13:25:07;;;;;;;;;30.00;28.75;;;;;;;;4952283;28;8834;-85
2021/06/23 13:27:35;;;;;;;;;35.50;33.00;;;;;;;;4968253;28;8992;-90
2021/06/23 13:30:02;;;;;;;;;30.25;30.25;;;;;;;;4966342;28;8877;-93
2021/06/23 13:32:29;;;;;;;;;34.75;32.25;;;;;;;;4966449;28;8997;-83
2021/06/23 13:34:56;;;;;;;;;50.67;43.00;;;;;;;;4965857;28;8877;-84
2021/06/23 13:37:24;;;;;;;;;39.50;35.25;;;;;;;;4967235;28;8980;-93
2021/06/23 13:39:51;;;;;;;;;37.00;35.00;;;;;;;;4966097;28;8869;-92
2021/06/23 13:42:20;;;;;;;;;24.25;24.00;;;;;;;;4966933;28;9015;-91
2021/06/23 13:44:47;;;;;;;;;34.25;29.75;;;;;;;;4965875;28;8927;-88
2021/06/23 13:47:14;;;;;;;;;33.25;32.25;;;;;;;;4967028;28;8919;-81
2021/06/23 13:49:43;;;;;;;;;36.75;34.50;;;;;;;;4966077;28;8889;-93
2021/06/23 13:52:10;;;;;;;;;28.75;26.25;;;;;;;;4966359;28;8869;-91
2021/06/23 13:54:38;;;;;;;;;28.75;27.25;;;;;;;;4966930;28;9000;-91
2021/06/23 13:57:08;;;;;;;;;33.00;32.50;;;;;;;;4966175;28;9655;-93
2021/06/23 13:59:37;;;;;;;;;30.25;28.75;;;;;;;;4966993;28;8885;-84
2021/06/23 14:02:04;;;;;;;;;34.75;30.25;;;;;;;;4964582;28;8841;-94
2021/06/23 14:04:32;;;;;;;;;31.50;31.25;;;;;;;;4967112;28;8903;-92
2021/06/23 14:06:59;;;;;;;;;32.00;29.25;;;;;;;;4967143;28;8972;-89
2021/06/23 14:09:26;;;;;;;;;32.75;30.75;;;;;;;;4966517;28;8861;-90
2021/06/23 14:11:53;;;;;;;;;31.50;29.50;;;;;;;;4955624;28;8923;-89
2021/06/23 14:14:20;;;;;;;;;35.25;32.00;;;;;;;;4965624;28;8913;-86
2021/06/23 14:16:49;;;;;;;;;36.50;33.25;;;;;;;;4965789;28;8881;-91
2021/06/23 14:19:17;;;;;;;;;36.25;31.50;;;;;;;;4965521;28;9020;-92
2021/06/23 14:21:44;;;;;;;;;35.75;33.75;;;;;;;;4967181;28;8908;-93
2021/06/23 14:24:11;;;;;;;;;37.50;34.00;;;;;;;;4966909;28;8933;-82
2021/06/23 14:26:40;;;;;;;;;32.25;31.50;;;;;;;;4968548;28;8901;-93
2021/06/23 14:29:08;;;;;;;;;35.25;31.25;;;;;;;;4967770;28;8892;-78
2021/06/23 14:31:36;;;;;;;;;34.75;32.50;;;;;;;;4959158;28;8841;-90
2021/06/23 14:34:05;;;;;;;;;38.75;33.00;;;;;;;;4966185;28;8872;-76
2021/06/23 14:36:32;;;;;;;;;34.75;31.50;;;;;;;;4965103;28;8921;-91
2021/06/23 14:39:01;;;;;;;;;25.50;25.00;;;;;;;;4966071;28;8985;-91
2021/06/23 14:41:28;;;;;;;;;32.75;30.50;;;;;;;;4964501;28;8984;-84
2021/06/23 14:43:55;;;;;;;;;40.50;35.25;;;;;;;;4966114;28;8933;-91
2021/06/23 14:46:23;;;;;;;;;37.75;32.50;;;;;;;;4965303;28;8854;-79
2021/06/23 14:48:50;;;;;;;;;34.25;30.25;;;;;;;;4965068;28;8897;-79
2021/06/23 14:51:19;;;;;;;;;38.00;32.25;;;;;;;;4965660;28;8889;-89
2021/06/23 14:53:46;;;;;;;;;35.75;30.00;;;;;;;;4965454;28;8873;-94